Orlando, Florida
Traffic Map
Current Weather Conditions
Orlando, Florida
Overcast
Overcast
67°
Feels Like: 67°
Wind Chill: 67° Ceiling: 2400
Heat Index: 67° Visibility: 10mi
Dew Point: 56° Wind: 10mph
Humidity: 68% Direction: 310° (NW)
Pressure: 30.16in Gusts: 22mph
Raw Report DataKORL 301753Z 31009G19KT 10SM OVC024 19/13 A3016 RMK AO2 SLP216 T01940133 10200 20100 58014
Traffic Incident Summary
Active as of:
Severity:
Category:
InformationThere was an issue retrieving the traffic information for this location. Please try a different location or try again shortly.
Advertisements
Track Severe Weather on mobile